Miranda, Argentina
Current Conditions -  °F | °C
As of 3:00 AM on Thursday 23 Oct 2014 (Local Time) from SCSE Reporting Station
Overcast Overcast  
Wind Chill: 55°   Ceiling: 600
Heat Index: 55°   Visibility: 4mi
Dew Point: 52°   Wind: 3mph
Humidity: 88%   Direction: NA
Pressure: 29.94"   Gusts: NA
Location:  29.32°S, 67.64°W
Report Text: SCSE 230600Z VRB03KT 6000 OVC006 13/11 Q1014
Loading
Personal Weather Stations






























Interactive Weather Map
Tropical Storm Tracking
New forecast layout! Learn more

10-Day Weather Forecast

Advertisements
Track Severe Weather on mobile